Terminal Aerodrome Forecast
Issued by NWS Grand Forks, ND

Home | Current Version | Previous Version | Graphics & Text | Print | Product List | Glossary On
Versions: 1 2 3 4 5 6 7 8 9 10 11 12 13 14 15 16 17 18 19 20
827
FTUS43 KFGF 082027 AAA
TAFGFK
TAF AMD
KGFK 082027Z 0820/0918 34023G30KT 3SM -SN OVC025
      TEMPO 0821/0901 1/2SM -SN BLSN BKN015
     FM090100 35015KT P6SM OVC025
     FM090600 34012KT P6SM SCT120=

USA.gov is the U.S. government's official web portal to all federal, state and local government web resources and services.